sensor_id;sensor_type;location;lat;lon;timestamp;temperature;humidity
780;DHT22;373;49.342;8.146;2022-11-27T00:00:53;8.40;99.90
780;DHT22;373;49.342;8.146;2022-11-27T00:03:21;8.60;99.90
780;DHT22;373;49.342;8.146;2022-11-27T00:05:53;8.70;99.90
780;DHT22;373;49.342;8.146;2022-11-27T00:08:21;8.70;99.90
780;DHT22;373;49.342;8.146;2022-11-27T00:10:48;8.60;99.90
780;DHT22;373;49.342;8.146;2022-11-27T00:13:15;8.60;99.90
780;DHT22;373;49.342;8.146;2022-11-27T00:15:42;8.50;99.90
780;DHT22;373;49.342;8.146;2022-11-27T00:18:09;8.40;99.90
780;DHT22;373;49.342;8.146;2022-11-27T00:20:38;8.60;99.90
780;DHT22;373;49.342;8.146;2022-11-27T00:23:05;8.30;99.90
780;DHT22;373;49.342;8.146;2022-11-27T00:25:32;8.30;99.90
780;DHT22;373;49.342;8.146;2022-11-27T00:27:59;8.20;99.90
780;DHT22;373;49.342;8.146;2022-11-27T00:30:26;8.20;99.90
780;DHT22;373;49.342;8.146;2022-11-27T00:32:53;8.40;99.90
780;DHT22;373;49.342;8.146;2022-11-27T00:35:20;8.60;99.90
780;DHT22;373;49.342;8.146;2022-11-27T00:37:49;8.10;99.90
780;DHT22;373;49.342;8.146;2022-11-27T00:40:16;8.10;99.90
780;DHT22;373;49.342;8.146;2022-11-27T00:42:43;8.00;99.90
780;DHT22;373;49.342;8.146;2022-11-27T00:45:10;8.20;99.90
780;DHT22;373;49.342;8.146;2022-11-27T00:47:37;7.80;99.90
780;DHT22;373;49.342;8.146;2022-11-27T00:50:06;7.60;99.90
780;DHT22;373;49.342;8.146;2022-11-27T00:52:33;7.70;99.90
780;DHT22;373;49.342;8.146;2022-11-27T00:55:02;8.00;99.90
780;DHT22;373;49.342;8.146;2022-11-27T00:57:29;7.80;99.90
780;DHT22;373;49.342;8.146;2022-11-27T00:59:56;7.80;99.90
780;DHT22;373;49.342;8.146;2022-11-27T01:02:23;7.70;99.90
780;DHT22;373;49.342;8.146;2022-11-27T01:04:50;7.60;99.90
780;DHT22;373;49.342;8.146;2022-11-27T01:07:17;7.70;99.90
780;DHT22;373;49.342;8.146;2022-11-27T01:09:44;7.90;99.90
780;DHT22;373;49.342;8.146;2022-11-27T01:12:13;7.80;99.90
780;DHT22;373;49.342;8.146;2022-11-27T01:14:40;7.70;99.90
780;DHT22;373;49.342;8.146;2022-11-27T01:17:07;7.60;99.90
780;DHT22;373;49.342;8.146;2022-11-27T01:19:34;7.90;99.90
780;DHT22;373;49.342;8.146;2022-11-27T01:22:01;7.70;99.90
780;DHT22;373;49.342;8.146;2022-11-27T01:24:28;7.80;99.90
780;DHT22;373;49.342;8.146;2022-11-27T01:26:55;7.90;99.90
780;DHT22;373;49.342;8.146;2022-11-27T01:29:23;7.70;99.90
780;DHT22;373;49.342;8.146;2022-11-27T01:31:50;7.80;99.90
780;DHT22;373;49.342;8.146;2022-11-27T01:34:18;7.70;99.90
780;DHT22;373;49.342;8.146;2022-11-27T01:36:45;7.50;99.90
780;DHT22;373;49.342;8.146;2022-11-27T01:39:14;7.50;99.90
780;DHT22;373;49.342;8.146;2022-11-27T01:41:42;7.60;99.90
780;DHT22;373;49.342;8.146;2022-11-27T01:44:47;7.60;99.90
780;DHT22;373;49.342;8.146;2022-11-27T01:47:20;7.60;99.90
780;DHT22;373;49.342;8.146;2022-11-27T01:49:53;7.60;99.90
780;DHT22;373;49.342;8.146;2022-11-27T01:52:24;7.70;99.90
780;DHT22;373;49.342;8.146;2022-11-27T01:55:00;7.70;99.90
780;DHT22;373;49.342;8.146;2022-11-27T01:57:29;7.70;99.90
780;DHT22;373;49.342;8.146;2022-11-27T01:59:59;7.70;99.90
780;DHT22;373;49.342;8.146;2022-11-27T02:02:27;7.80;99.90
780;DHT22;373;49.342;8.146;2022-11-27T02:04:57;7.70;99.90
780;DHT22;373;49.342;8.146;2022-11-27T02:07:24;7.80;99.90
780;DHT22;373;49.342;8.146;2022-11-27T02:09:51;7.60;99.90
780;DHT22;373;49.342;8.146;2022-11-27T02:12:21;7.30;99.90
780;DHT22;373;49.342;8.146;2022-11-27T02:14:57;7.00;99.90
780;DHT22;373;49.342;8.146;2022-11-27T02:17:35;6.90;99.90
780;DHT22;373;49.342;8.146;2022-11-27T02:20:16;6.90;99.90
780;DHT22;373;49.342;8.146;2022-11-27T02:23:05;6.80;99.90
780;DHT22;373;49.342;8.146;2022-11-27T02:25:43;6.90;99.90
780;DHT22;373;49.342;8.146;2022-11-27T02:28:28;7.20;99.90
780;DHT22;373;49.342;8.146;2022-11-27T02:31:03;7.40;99.90
780;DHT22;373;49.342;8.146;2022-11-27T02:33:33;7.30;99.90
780;DHT22;373;49.342;8.146;2022-11-27T02:36:06;7.30;99.90
780;DHT22;373;49.342;8.146;2022-11-27T02:38:38;7.00;99.90
780;DHT22;373;49.342;8.146;2022-11-27T02:41:10;6.80;99.90
780;DHT22;373;49.342;8.146;2022-11-27T02:43:40;6.70;99.90
780;DHT22;373;49.342;8.146;2022-11-27T02:46:11;6.60;99.90
780;DHT22;373;49.342;8.146;2022-11-27T02:48:42;6.60;99.90
780;DHT22;373;49.342;8.146;2022-11-27T02:51:11;6.20;99.90
780;DHT22;373;49.342;8.146;2022-11-27T02:53:45;6.10;99.90
780;DHT22;373;49.342;8.146;2022-11-27T02:56:16;5.80;99.90
780;DHT22;373;49.342;8.146;2022-11-27T02:58:45;5.80;99.90
780;DHT22;373;49.342;8.146;2022-11-27T03:01:14;5.90;99.90
780;DHT22;373;49.342;8.146;2022-11-27T03:03:47;5.70;99.90
780;DHT22;373;49.342;8.146;2022-11-27T03:06:19;5.70;99.90
780;DHT22;373;49.342;8.146;2022-11-27T03:08:51;5.80;99.90
780;DHT22;373;49.342;8.146;2022-11-27T03:11:20;5.90;99.90
780;DHT22;373;49.342;8.146;2022-11-27T03:13:51;5.80;99.90
780;DHT22;373;49.342;8.146;2022-11-27T03:16:26;5.60;99.90
780;DHT22;373;49.342;8.146;2022-11-27T03:18:58;5.90;99.90
780;DHT22;373;49.342;8.146;2022-11-27T03:21:31;5.90;99.90
780;DHT22;373;49.342;8.146;2022-11-27T03:23:59;5.80;99.90
780;DHT22;373;49.342;8.146;2022-11-27T03:26:27;5.80;99.90
780;DHT22;373;49.342;8.146;2022-11-27T03:28:55;5.70;99.90
780;DHT22;373;49.342;8.146;2022-11-27T03:31:24;5.80;99.90
780;DHT22;373;49.342;8.146;2022-11-27T03:33:52;5.40;99.90
780;DHT22;373;49.342;8.146;2022-11-27T03:36:20;5.60;99.90
780;DHT22;373;49.342;8.146;2022-11-27T03:38:49;5.40;99.90
780;DHT22;373;49.342;8.146;2022-11-27T03:41:22;5.20;99.90
780;DHT22;373;49.342;8.146;2022-11-27T03:43:58;5.10;99.90
780;DHT22;373;49.342;8.146;2022-11-27T03:46:37;5.10;99.90
780;DHT22;373;49.342;8.146;2022-11-27T03:49:09;5.10;99.90
780;DHT22;373;49.342;8.146;2022-11-27T03:51:44;5.30;99.90
780;DHT22;373;49.342;8.146;2022-11-27T03:54:21;5.30;99.90
780;DHT22;373;49.342;8.146;2022-11-27T03:56:55;5.40;99.90
780;DHT22;373;49.342;8.146;2022-11-27T03:59:26;5.30;99.90
780;DHT22;373;49.342;8.146;2022-11-27T04:01:55;5.20;99.90
780;DHT22;373;49.342;8.146;2022-11-27T04:04:22;5.20;99.90
780;DHT22;373;49.342;8.146;2022-11-27T04:06:49;5.40;99.90
780;DHT22;373;49.342;8.146;2022-11-27T04:09:16;5.50;99.90
780;DHT22;373;49.342;8.146;2022-11-27T04:11:43;5.40;99.90
780;DHT22;373;49.342;8.146;2022-11-27T04:14:10;5.30;99.90
780;DHT22;373;49.342;8.146;2022-11-27T04:16:37;5.20;99.90
780;DHT22;373;49.342;8.146;2022-11-27T04:19:06;5.10;99.90
780;DHT22;373;49.342;8.146;2022-11-27T04:21:34;5.00;99.90
780;DHT22;373;49.342;8.146;2022-11-27T04:24:01;5.20;99.90
780;DHT22;373;49.342;8.146;2022-11-27T04:26:28;5.10;99.90
780;DHT22;373;49.342;8.146;2022-11-27T04:28:55;4.80;99.90
780;DHT22;373;49.342;8.146;2022-11-27T04:31:22;4.60;99.90
780;DHT22;373;49.342;8.146;2022-11-27T04:33:49;4.50;99.90
780;DHT22;373;49.342;8.146;2022-11-27T04:36:18;4.50;99.90
780;DHT22;373;49.342;8.146;2022-11-27T04:38:45;4.30;99.90
780;DHT22;373;49.342;8.146;2022-11-27T04:41:12;4.20;99.90
780;DHT22;373;49.342;8.146;2022-11-27T04:43:39;4.40;99.90
780;DHT22;373;49.342;8.146;2022-11-27T04:46:06;4.30;99.90
780;DHT22;373;49.342;8.146;2022-11-27T04:48:33;4.20;99.90
780;DHT22;373;49.342;8.146;2022-11-27T04:51:00;4.30;99.90
780;DHT22;373;49.342;8.146;2022-11-27T04:53:28;4.30;99.90
780;DHT22;373;49.342;8.146;2022-11-27T04:55:55;4.40;99.90
780;DHT22;373;49.342;8.146;2022-11-27T04:58:22;4.20;99.90
780;DHT22;373;49.342;8.146;2022-11-27T05:00:49;4.10;99.90
780;DHT22;373;49.342;8.146;2022-11-27T05:03:16;4.00;99.90
780;DHT22;373;49.342;8.146;2022-11-27T05:05:43;4.00;99.90
780;DHT22;373;49.342;8.146;2022-11-27T05:08:10;4.10;99.90
780;DHT22;373;49.342;8.146;2022-11-27T05:10:39;4.20;99.90
780;DHT22;373;49.342;8.146;2022-11-27T05:13:06;4.20;99.90
780;DHT22;373;49.342;8.146;2022-11-27T05:15:33;4.10;99.90
780;DHT22;373;49.342;8.146;2022-11-27T05:18:00;4.10;99.90
780;DHT22;373;49.342;8.146;2022-11-27T05:20:27;4.10;99.90
780;DHT22;373;49.342;8.146;2022-11-27T05:22:54;4.10;99.90
780;DHT22;373;49.342;8.146;2022-11-27T05:25:21;4.00;99.90
780;DHT22;373;49.342;8.146;2022-11-27T05:27:49;4.20;99.90
780;DHT22;373;49.342;8.146;2022-11-27T05:30:16;4.00;99.90
780;DHT22;373;49.342;8.146;2022-11-27T05:32:43;4.10;99.90
780;DHT22;373;49.342;8.146;2022-11-27T05:35:10;4.20;99.90
780;DHT22;373;49.342;8.146;2022-11-27T05:37:37;4.30;99.90
780;DHT22;373;49.342;8.146;2022-11-27T05:40:06;4.20;99.90
780;DHT22;373;49.342;8.146;2022-11-27T05:42:33;4.40;99.90
780;DHT22;373;49.342;8.146;2022-11-27T05:45:01;4.50;99.90
780;DHT22;373;49.342;8.146;2022-11-27T05:47:28;4.80;99.90
780;DHT22;373;49.342;8.146;2022-11-27T05:49:56;4.90;99.90
780;DHT22;373;49.342;8.146;2022-11-27T05:52:23;4.80;99.90
780;DHT22;373;49.342;8.146;2022-11-27T05:54:50;4.70;99.90
780;DHT22;373;49.342;8.146;2022-11-27T05:57:17;4.80;99.90
780;DHT22;373;49.342;8.146;2022-11-27T05:59:44;4.90;99.90
780;DHT22;373;49.342;8.146;2022-11-27T06:02:12;4.70;99.90
780;DHT22;373;49.342;8.146;2022-11-27T06:04:39;4.80;99.90
780;DHT22;373;49.342;8.146;2022-11-27T06:07:06;4.70;99.90
780;DHT22;373;49.342;8.146;2022-11-27T06:09:33;4.50;99.90
780;DHT22;373;49.342;8.146;2022-11-27T06:12:03;4.60;99.90
780;DHT22;373;49.342;8.146;2022-11-27T06:14:30;4.60;99.90
780;DHT22;373;49.342;8.146;2022-11-27T06:16:59;4.70;99.90
780;DHT22;373;49.342;8.146;2022-11-27T06:19:28;4.60;99.90
780;DHT22;373;49.342;8.146;2022-11-27T06:21:55;4.50;99.90
780;DHT22;373;49.342;8.146;2022-11-27T06:24:23;4.70;99.90
780;DHT22;373;49.342;8.146;2022-11-27T06:26:50;4.60;99.90
780;DHT22;373;49.342;8.146;2022-11-27T06:29:17;4.80;99.90
780;DHT22;373;49.342;8.146;2022-11-27T06:31:44;4.90;99.90
780;DHT22;373;49.342;8.146;2022-11-27T06:34:11;5.30;99.90
780;DHT22;373;49.342;8.146;2022-11-27T06:36:40;5.50;99.90
780;DHT22;373;49.342;8.146;2022-11-27T06:39:09;5.40;99.90
780;DHT22;373;49.342;8.146;2022-11-27T06:41:36;5.40;99.90
780;DHT22;373;49.342;8.146;2022-11-27T06:44:04;5.40;99.90
780;DHT22;373;49.342;8.146;2022-11-27T06:46:31;5.20;99.90
780;DHT22;373;49.342;8.146;2022-11-27T06:48:59;4.90;99.90
780;DHT22;373;49.342;8.146;2022-11-27T06:51:27;4.90;99.90
780;DHT22;373;49.342;8.146;2022-11-27T06:53:58;4.80;99.90
780;DHT22;373;49.342;8.146;2022-11-27T06:56:28;4.50;99.90
780;DHT22;373;49.342;8.146;2022-11-27T06:58:57;4.50;99.90
780;DHT22;373;49.342;8.146;2022-11-27T07:01:25;4.50;99.90
780;DHT22;373;49.342;8.146;2022-11-27T07:03:53;4.70;99.90
780;DHT22;373;49.342;8.146;2022-11-27T07:06:22;4.60;99.90
780;DHT22;373;49.342;8.146;2022-11-27T07:08:50;4.60;99.90
780;DHT22;373;49.342;8.146;2022-11-27T07:11:21;4.60;99.90
780;DHT22;373;49.342;8.146;2022-11-27T07:13:49;4.70;99.90
780;DHT22;373;49.342;8.146;2022-11-27T07:16:17;4.60;99.90
780;DHT22;373;49.342;8.146;2022-11-27T07:18:46;4.50;99.90
780;DHT22;373;49.342;8.146;2022-11-27T07:21:14;4.70;99.90
780;DHT22;373;49.342;8.146;2022-11-27T07:23:41;5.00;99.90
780;DHT22;373;49.342;8.146;2022-11-27T07:26:10;5.20;99.90
780;DHT22;373;49.342;8.146;2022-11-27T07:28:39;5.00;99.90
780;DHT22;373;49.342;8.146;2022-11-27T07:31:08;5.20;99.90
780;DHT22;373;49.342;8.146;2022-11-27T07:33:35;5.20;99.90
780;DHT22;373;49.342;8.146;2022-11-27T07:36:06;5.00;99.90
780;DHT22;373;49.342;8.146;2022-11-27T07:38:34;4.90;99.90
780;DHT22;373;49.342;8.146;2022-11-27T07:41:02;4.50;99.90
780;DHT22;373;49.342;8.146;2022-11-27T07:43:30;4.40;99.90
780;DHT22;373;49.342;8.146;2022-11-27T07:46:02;4.60;99.90
780;DHT22;373;49.342;8.146;2022-11-27T07:48:29;4.60;99.90
780;DHT22;373;49.342;8.146;2022-11-27T07:50:57;4.70;99.90
780;DHT22;373;49.342;8.146;2022-11-27T07:53:24;4.70;99.90
780;DHT22;373;49.342;8.146;2022-11-27T07:55:51;4.70;99.90
780;DHT22;373;49.342;8.146;2022-11-27T07:58:18;4.50;99.90
780;DHT22;373;49.342;8.146;2022-11-27T08:00:47;4.40;99.90
780;DHT22;373;49.342;8.146;2022-11-27T08:03:16;4.30;99.90
780;DHT22;373;49.342;8.146;2022-11-27T08:05:43;4.30;99.90
780;DHT22;373;49.342;8.146;2022-11-27T08:08:10;4.30;99.90
780;DHT22;373;49.342;8.146;2022-11-27T08:10:37;4.30;99.90
780;DHT22;373;49.342;8.146;2022-11-27T08:13:06;4.20;99.90
780;DHT22;373;49.342;8.146;2022-11-27T08:15:35;4.10;99.90
780;DHT22;373;49.342;8.146;2022-11-27T08:18:02;4.20;99.90
780;DHT22;373;49.342;8.146;2022-11-27T08:20:32;4.30;99.90
780;DHT22;373;49.342;8.146;2022-11-27T08:22:59;4.40;99.90
780;DHT22;373;49.342;8.146;2022-11-27T08:25:26;4.30;99.90
780;DHT22;373;49.342;8.146;2022-11-27T08:27:53;4.20;99.90
780;DHT22;373;49.342;8.146;2022-11-27T08:30:20;4.10;99.90
780;DHT22;373;49.342;8.146;2022-11-27T08:32:48;4.20;99.90
780;DHT22;373;49.342;8.146;2022-11-27T08:35:15;4.20;99.90
780;DHT22;373;49.342;8.146;2022-11-27T08:37:44;4.30;99.90
780;DHT22;373;49.342;8.146;2022-11-27T08:40:14;4.50;99.90
780;DHT22;373;49.342;8.146;2022-11-27T08:42:41;4.70;99.90
780;DHT22;373;49.342;8.146;2022-11-27T08:45:09;4.80;99.90
780;DHT22;373;49.342;8.146;2022-11-27T08:47:36;4.90;99.90
780;DHT22;373;49.342;8.146;2022-11-27T08:50:03;5.00;99.90
780;DHT22;373;49.342;8.146;2022-11-27T08:52:31;4.80;99.90
780;DHT22;373;49.342;8.146;2022-11-27T08:55:02;4.60;99.90
780;DHT22;373;49.342;8.146;2022-11-27T08:57:29;4.70;99.90
780;DHT22;373;49.342;8.146;2022-11-27T08:59:56;4.80;99.90
780;DHT22;373;49.342;8.146;2022-11-27T09:02:23;4.90;99.90
780;DHT22;373;49.342;8.146;2022-11-27T09:04:50;5.10;99.90
780;DHT22;373;49.342;8.146;2022-11-27T09:07:17;5.20;99.90
780;DHT22;373;49.342;8.146;2022-11-27T09:09:44;5.50;99.90
780;DHT22;373;49.342;8.146;2022-11-27T09:12:13;5.40;99.90
780;DHT22;373;49.342;8.146;2022-11-27T09:14:41;5.20;99.90
780;DHT22;373;49.342;8.146;2022-11-27T09:17:08;4.90;99.90
780;DHT22;373;49.342;8.146;2022-11-27T09:19:35;5.00;99.90
780;DHT22;373;49.342;8.146;2022-11-27T09:22:02;4.70;99.90
780;DHT22;373;49.342;8.146;2022-11-27T09:24:29;4.80;99.90
780;DHT22;373;49.342;8.146;2022-11-27T09:26:56;4.90;99.90
780;DHT22;373;49.342;8.146;2022-11-27T09:29:24;5.10;99.90
780;DHT22;373;49.342;8.146;2022-11-27T09:31:51;5.20;99.90
780;DHT22;373;49.342;8.146;2022-11-27T09:34:18;4.90;99.90
780;DHT22;373;49.342;8.146;2022-11-27T09:36:45;4.70;99.90
780;DHT22;373;49.342;8.146;2022-11-27T09:39:13;4.90;99.90
780;DHT22;373;49.342;8.146;2022-11-27T09:41:44;5.00;99.90
780;DHT22;373;49.342;8.146;2022-11-27T09:44:30;5.00;99.90
780;DHT22;373;49.342;8.146;2022-11-27T09:47:03;5.00;99.90
780;DHT22;373;49.342;8.146;2022-11-27T09:49:35;4.90;99.90
780;DHT22;373;49.342;8.146;2022-11-27T09:52:10;4.80;99.90
780;DHT22;373;49.342;8.146;2022-11-27T09:54:42;4.80;99.90
780;DHT22;373;49.342;8.146;2022-11-27T09:57:15;5.10;99.90
780;DHT22;373;49.342;8.146;2022-11-27T09:59:48;5.00;99.90
780;DHT22;373;49.342;8.146;2022-11-27T10:02:17;4.90;99.90
780;DHT22;373;49.342;8.146;2022-11-27T10:04:45;4.80;99.90
780;DHT22;373;49.342;8.146;2022-11-27T10:07:19;4.70;99.90
780;DHT22;373;49.342;8.146;2022-11-27T10:10:02;4.80;99.90
780;DHT22;373;49.342;8.146;2022-11-27T10:12:36;5.00;99.90
780;DHT22;373;49.342;8.146;2022-11-27T10:15:13;5.00;99.90
780;DHT22;373;49.342;8.146;2022-11-27T10:17:45;5.20;99.90
780;DHT22;373;49.342;8.146;2022-11-27T10:20:23;5.20;99.90
780;DHT22;373;49.342;8.146;2022-11-27T10:22:59;5.20;99.90
780;DHT22;373;49.342;8.146;2022-11-27T10:25:30;5.20;99.90
780;DHT22;373;49.342;8.146;2022-11-27T10:28:07;5.30;99.90
780;DHT22;373;49.342;8.146;2022-11-27T10:30:46;5.40;99.90
780;DHT22;373;49.342;8.146;2022-11-27T10:33:17;5.30;99.90
780;DHT22;373;49.342;8.146;2022-11-27T10:35:46;5.10;99.90
780;DHT22;373;49.342;8.146;2022-11-27T10:38:18;5.40;99.90
780;DHT22;373;49.342;8.146;2022-11-27T10:40:50;5.50;99.90
780;DHT22;373;49.342;8.146;2022-11-27T10:43:20;5.40;99.90
780;DHT22;373;49.342;8.146;2022-11-27T10:45:51;5.60;99.90
780;DHT22;373;49.342;8.146;2022-11-27T10:48:22;5.80;99.90
780;DHT22;373;49.342;8.146;2022-11-27T10:50:49;6.00;99.90
780;DHT22;373;49.342;8.146;2022-11-27T10:53:25;5.80;99.90
780;DHT22;373;49.342;8.146;2022-11-27T10:56:35;5.60;99.90
780;DHT22;373;49.342;8.146;2022-11-27T10:59:08;5.70;99.90
780;DHT22;373;49.342;8.146;2022-11-27T11:01:43;5.60;99.90
780;DHT22;373;49.342;8.146;2022-11-27T11:04:13;5.60;99.90
780;DHT22;373;49.342;8.146;2022-11-27T11:06:43;5.60;99.90
780;DHT22;373;49.342;8.146;2022-11-27T11:09:14;5.80;99.90
780;DHT22;373;49.342;8.146;2022-11-27T11:11:42;5.70;99.90
780;DHT22;373;49.342;8.146;2022-11-27T11:14:17;5.50;99.90
780;DHT22;373;49.342;8.146;2022-11-27T11:16:46;5.40;99.90
780;DHT22;373;49.342;8.146;2022-11-27T11:19:24;5.20;99.90
780;DHT22;373;49.342;8.146;2022-11-27T11:21:54;5.40;99.90
780;DHT22;373;49.342;8.146;2022-11-27T11:24:24;5.50;99.90
780;DHT22;373;49.342;8.146;2022-11-27T11:26:57;5.60;99.90
780;DHT22;373;49.342;8.146;2022-11-27T11:29:34;5.60;99.90
780;DHT22;373;49.342;8.146;2022-11-27T11:32:06;5.60;99.90
780;DHT22;373;49.342;8.146;2022-11-27T11:34:35;5.70;99.90
780;DHT22;373;49.342;8.146;2022-11-27T11:37:19;5.80;99.90
780;DHT22;373;49.342;8.146;2022-11-27T11:39:53;6.00;99.90
780;DHT22;373;49.342;8.146;2022-11-27T11:42:21;5.60;99.90
780;DHT22;373;49.342;8.146;2022-11-27T11:44:50;5.50;99.90
780;DHT22;373;49.342;8.146;2022-11-27T11:47:20;5.40;99.90
780;DHT22;373;49.342;8.146;2022-11-27T11:49:49;5.50;99.90
780;DHT22;373;49.342;8.146;2022-11-27T11:52:40;5.60;99.90
780;DHT22;373;49.342;8.146;2022-11-27T11:55:16;5.60;99.90
780;DHT22;373;49.342;8.146;2022-11-27T11:58:08;5.40;99.90
780;DHT22;373;49.342;8.146;2022-11-27T12:00:41;5.30;99.90
780;DHT22;373;49.342;8.146;2022-11-27T12:03:29;5.40;99.90
780;DHT22;373;49.342;8.146;2022-11-27T12:09:07;5.40;99.90
780;DHT22;373;49.342;8.146;2022-11-27T12:11:42;5.40;99.90
780;DHT22;373;49.342;8.146;2022-11-27T12:14:18;5.30;99.90
780;DHT22;373;49.342;8.146;2022-11-27T12:16:55;5.40;99.90
780;DHT22;373;49.342;8.146;2022-11-27T12:19:45;5.40;99.90
780;DHT22;373;49.342;8.146;2022-11-27T12:22:21;5.40;99.90
780;DHT22;373;49.342;8.146;2022-11-27T12:24:55;5.30;99.90
780;DHT22;373;49.342;8.146;2022-11-27T12:27:36;5.30;99.90
780;DHT22;373;49.342;8.146;2022-11-27T12:30:12;5.40;99.90
780;DHT22;373;49.342;8.146;2022-11-27T12:33:08;5.40;99.90
780;DHT22;373;49.342;8.146;2022-11-27T12:35:46;5.30;99.90
780;DHT22;373;49.342;8.146;2022-11-27T12:38:33;5.40;99.90
780;DHT22;373;49.342;8.146;2022-11-27T12:43:58;5.40;99.90
780;DHT22;373;49.342;8.146;2022-11-27T12:46:32;5.40;99.90
780;DHT22;373;49.342;8.146;2022-11-27T12:49:04;5.30;99.90
780;DHT22;373;49.342;8.146;2022-11-27T12:51:41;5.40;99.90
780;DHT22;373;49.342;8.146;2022-11-27T12:54:13;5.50;99.90
780;DHT22;373;49.342;8.146;2022-11-27T12:56:44;5.50;99.90
780;DHT22;373;49.342;8.146;2022-11-27T12:59:20;5.50;99.90
780;DHT22;373;49.342;8.146;2022-11-27T13:01:52;5.40;99.90
780;DHT22;373;49.342;8.146;2022-11-27T13:04:25;5.40;99.90
780;DHT22;373;49.342;8.146;2022-11-27T13:06:58;5.30;99.90
780;DHT22;373;49.342;8.146;2022-11-27T13:09:36;5.40;99.90
780;DHT22;373;49.342;8.146;2022-11-27T13:12:08;5.30;99.90
780;DHT22;373;49.342;8.146;2022-11-27T13:14:39;5.40;99.90
780;DHT22;373;49.342;8.146;2022-11-27T13:17:10;5.50;99.90
780;DHT22;373;49.342;8.146;2022-11-27T13:19:43;5.70;99.90
780;DHT22;373;49.342;8.146;2022-11-27T13:22:15;5.50;99.90
780;DHT22;373;49.342;8.146;2022-11-27T13:24:46;5.50;99.90
780;DHT22;373;49.342;8.146;2022-11-27T13:27:15;5.60;99.90
780;DHT22;373;49.342;8.146;2022-11-27T13:29:45;5.50;99.90
780;DHT22;373;49.342;8.146;2022-11-27T13:32:18;5.50;99.90
780;DHT22;373;49.342;8.146;2022-11-27T13:34:46;5.50;99.90
780;DHT22;373;49.342;8.146;2022-11-27T13:37:26;5.60;99.90
780;DHT22;373;49.342;8.146;2022-11-27T13:39:59;5.70;99.90
780;DHT22;373;49.342;8.146;2022-11-27T13:42:29;5.80;99.90
780;DHT22;373;49.342;8.146;2022-11-27T13:44:57;5.70;99.90
780;DHT22;373;49.342;8.146;2022-11-27T13:47:28;5.80;99.90
780;DHT22;373;49.342;8.146;2022-11-27T13:50:01;5.80;99.90
780;DHT22;373;49.342;8.146;2022-11-27T13:52:30;5.90;99.90
780;DHT22;373;49.342;8.146;2022-11-27T13:54:59;5.90;99.90
780;DHT22;373;49.342;8.146;2022-11-27T13:57:28;6.00;99.90
780;DHT22;373;49.342;8.146;2022-11-27T13:59:57;6.00;99.90
780;DHT22;373;49.342;8.146;2022-11-27T14:02:25;6.00;99.90
780;DHT22;373;49.342;8.146;2022-11-27T14:05:05;5.90;99.90
780;DHT22;373;49.342;8.146;2022-11-27T14:07:37;5.90;99.90
780;DHT22;373;49.342;8.146;2022-11-27T14:10:11;6.00;99.90
780;DHT22;373;49.342;8.146;2022-11-27T14:12:39;6.10;99.90
780;DHT22;373;49.342;8.146;2022-11-27T14:15:08;6.20;99.90
780;DHT22;373;49.342;8.146;2022-11-27T14:17:40;6.20;99.90
780;DHT22;373;49.342;8.146;2022-11-27T14:20:21;6.20;99.90
780;DHT22;373;49.342;8.146;2022-11-27T14:22:52;5.90;99.90
780;DHT22;373;49.342;8.146;2022-11-27T14:25:22;5.90;99.90
780;DHT22;373;49.342;8.146;2022-11-27T14:27:56;5.90;99.90
780;DHT22;373;49.342;8.146;2022-11-27T14:30:29;6.00;99.90
780;DHT22;373;49.342;8.146;2022-11-27T14:32:57;6.00;99.90
780;DHT22;373;49.342;8.146;2022-11-27T14:35:25;6.10;99.90
780;DHT22;373;49.342;8.146;2022-11-27T14:38:06;6.20;99.90
780;DHT22;373;49.342;8.146;2022-11-27T14:40:34;6.20;99.90
780;DHT22;373;49.342;8.146;2022-11-27T14:43:14;6.20;99.90
780;DHT22;373;49.342;8.146;2022-11-27T14:45:43;6.30;99.90
780;DHT22;373;49.342;8.146;2022-11-27T14:48:22;6.00;99.90
780;DHT22;373;49.342;8.146;2022-11-27T14:50:50;6.00;99.90
780;DHT22;373;49.342;8.146;2022-11-27T14:53:21;6.00;99.90
780;DHT22;373;49.342;8.146;2022-11-27T14:55:52;5.90;99.90
780;DHT22;373;49.342;8.146;2022-11-27T14:58:25;5.80;99.90
780;DHT22;373;49.342;8.146;2022-11-27T15:00:56;5.80;99.90
780;DHT22;373;49.342;8.146;2022-11-27T15:03:24;5.80;99.90
780;DHT22;373;49.342;8.146;2022-11-27T15:05:54;5.90;99.90
780;DHT22;373;49.342;8.146;2022-11-27T15:08:23;6.00;99.90
780;DHT22;373;49.342;8.146;2022-11-27T15:10:53;6.00;99.90
780;DHT22;373;49.342;8.146;2022-11-27T15:13:22;6.00;99.90
780;DHT22;373;49.342;8.146;2022-11-27T15:15:57;6.40;99.90
780;DHT22;373;49.342;8.146;2022-11-27T15:18:27;6.50;99.90
780;DHT22;373;49.342;8.146;2022-11-27T15:20:56;6.60;99.90
780;DHT22;373;49.342;8.146;2022-11-27T15:23:27;7.00;99.90
780;DHT22;373;49.342;8.146;2022-11-27T15:26:09;7.20;99.90
780;DHT22;373;49.342;8.146;2022-11-27T15:28:39;7.40;99.90
780;DHT22;373;49.342;8.146;2022-11-27T15:31:23;7.60;99.90
780;DHT22;373;49.342;8.146;2022-11-27T15:33:59;7.60;99.90
780;DHT22;373;49.342;8.146;2022-11-27T15:36:33;7.60;99.90
780;DHT22;373;49.342;8.146;2022-11-27T15:39:21;7.80;99.90
780;DHT22;373;49.342;8.146;2022-11-27T15:41:54;7.50;99.90
780;DHT22;373;49.342;8.146;2022-11-27T15:44:21;7.30;99.90
780;DHT22;373;49.342;8.146;2022-11-27T15:46:49;7.60;99.90
780;DHT22;373;49.342;8.146;2022-11-27T15:49:16;7.80;99.90
780;DHT22;373;49.342;8.146;2022-11-27T15:51:45;8.00;99.90
780;DHT22;373;49.342;8.146;2022-11-27T15:54:13;8.00;99.90
780;DHT22;373;49.342;8.146;2022-11-27T15:56:41;8.10;99.90
780;DHT22;373;49.342;8.146;2022-11-27T15:59:08;7.90;99.90
780;DHT22;373;49.342;8.146;2022-11-27T16:01:36;7.90;99.90
780;DHT22;373;49.342;8.146;2022-11-27T16:04:03;7.90;99.90
780;DHT22;373;49.342;8.146;2022-11-27T16:06:30;7.70;99.90
780;DHT22;373;49.342;8.146;2022-11-27T16:08:59;7.80;99.90
780;DHT22;373;49.342;8.146;2022-11-27T16:11:29;7.60;99.90
780;DHT22;373;49.342;8.146;2022-11-27T16:13:56;7.70;99.90
780;DHT22;373;49.342;8.146;2022-11-27T16:16:24;7.50;99.90
780;DHT22;373;49.342;8.146;2022-11-27T16:18:55;7.30;99.90
780;DHT22;373;49.342;8.146;2022-11-27T16:21:22;7.60;99.90
780;DHT22;373;49.342;8.146;2022-11-27T16:23:49;7.70;99.90
780;DHT22;373;49.342;8.146;2022-11-27T16:26:16;7.90;99.90
780;DHT22;373;49.342;8.146;2022-11-27T16:28:45;7.80;99.90
780;DHT22;373;49.342;8.146;2022-11-27T16:31:13;7.80;99.90
780;DHT22;373;49.342;8.146;2022-11-27T16:33:41;7.70;99.90
780;DHT22;373;49.342;8.146;2022-11-27T16:36:10;7.80;99.90
780;DHT22;373;49.342;8.146;2022-11-27T16:38:38;7.80;99.90
780;DHT22;373;49.342;8.146;2022-11-27T16:41:09;7.70;99.90
780;DHT22;373;49.342;8.146;2022-11-27T16:43:39;7.80;99.90
780;DHT22;373;49.342;8.146;2022-11-27T16:46:10;8.10;99.90
780;DHT22;373;49.342;8.146;2022-11-27T16:48:40;8.20;99.90
780;DHT22;373;49.342;8.146;2022-11-27T16:51:09;8.30;99.90
780;DHT22;373;49.342;8.146;2022-11-27T16:53:38;8.10;99.90
780;DHT22;373;49.342;8.146;2022-11-27T16:56:07;7.90;99.90
780;DHT22;373;49.342;8.146;2022-11-27T16:58:36;7.90;99.90
780;DHT22;373;49.342;8.146;2022-11-27T17:01:04;8.00;99.90
780;DHT22;373;49.342;8.146;2022-11-27T17:03:33;7.80;99.90
780;DHT22;373;49.342;8.146;2022-11-27T17:06:00;7.90;99.90
780;DHT22;373;49.342;8.146;2022-11-27T17:08:32;7.70;99.90
780;DHT22;373;49.342;8.146;2022-11-27T17:11:06;7.80;99.90
780;DHT22;373;49.342;8.146;2022-11-27T17:13:33;7.70;99.90
780;DHT22;373;49.342;8.146;2022-11-27T17:16:02;7.90;99.90
780;DHT22;373;49.342;8.146;2022-11-27T17:18:29;7.60;99.90